createdAt,value
2022-10-07T00:02:08.773Z,7.2
2022-10-07T00:07:06.957Z,7.2
2022-10-07T00:12:05.041Z,7.3
2022-10-07T00:17:03.221Z,7.2
2022-10-07T00:22:01.264Z,7.1
2022-10-07T00:26:59.287Z,7
2022-10-07T00:31:57.535Z,7
2022-10-07T00:36:55.328Z,6.9
2022-10-07T00:41:53.640Z,6.8
2022-10-07T00:46:51.771Z,6.8
2022-10-07T00:51:49.794Z,6.7
2022-10-07T00:56:47.821Z,6.7
2022-10-07T01:01:46.050Z,6.6
2022-10-07T01:06:43.844Z,6.5
2022-10-07T01:11:41.885Z,6.5
2022-10-07T01:16:40.319Z,6.5
2022-10-07T01:21:38.372Z,6.4
2022-10-07T01:26:36.562Z,6.3
2022-10-07T01:31:34.593Z,6.3
2022-10-07T01:36:32.768Z,6.3
2022-10-07T01:41:30.897Z,6.2
2022-10-07T01:46:29.100Z,6.2
2022-10-07T01:51:27.479Z,6.3
2022-10-07T01:56:25.675Z,6.3
2022-10-07T02:01:24.036Z,6.2
2022-10-07T02:06:21.708Z,6.1
2022-10-07T02:11:19.775Z,6.1
2022-10-07T02:16:17.957Z,6
2022-10-07T02:21:15.990Z,6.1
2022-10-07T02:26:13.974Z,6.1
2022-10-07T02:31:11.935Z,6
2022-10-07T02:36:09.957Z,5.9
2022-10-07T02:41:08.051Z,5.9
2022-10-07T02:46:06.176Z,5.8
2022-10-07T02:51:04.138Z,5.8
2022-10-07T02:56:02.455Z,5.8
2022-10-07T03:01:00.583Z,5.7
2022-10-07T03:05:58.624Z,5.7
2022-10-07T03:10:56.678Z,5.7
2022-10-07T03:15:55.014Z,5.9
2022-10-07T03:20:53.007Z,5.9
2022-10-07T03:25:51.166Z,5.9
2022-10-07T03:30:49.308Z,5.9
2022-10-07T03:35:47.558Z,5.7
2022-10-07T03:40:45.705Z,5.8
2022-10-07T03:45:43.747Z,5.8
2022-10-07T03:50:41.846Z,5.7
2022-10-07T03:55:39.934Z,5.8
2022-10-07T04:00:38.130Z,5.8
2022-10-07T04:05:36.316Z,5.7
2022-10-07T04:10:34.320Z,5.6
2022-10-07T04:15:32.418Z,5.6
2022-10-07T04:20:30.726Z,5.6
2022-10-07T04:25:28.966Z,5.7
2022-10-07T04:30:27.219Z,5.8
2022-10-07T04:35:25.168Z,5.8
2022-10-07T04:40:23.356Z,5.9
2022-10-07T04:45:21.719Z,6
2022-10-07T04:50:19.979Z,6.2
2022-10-07T04:55:18.291Z,6.4
2022-10-07T05:00:16.564Z,6.6
2022-10-07T05:05:14.722Z,6.8
2022-10-07T05:10:13.015Z,7.2
2022-10-07T05:15:11.691Z,8
2022-10-07T05:20:11.752Z,10.6
2022-10-07T05:25:13.093Z,13.9
2022-10-07T05:30:13.628Z,16.6
2022-10-07T05:35:13.886Z,19.1
2022-10-07T05:40:13.791Z,21.2
2022-10-07T05:45:13.611Z,23.1
2022-10-07T05:50:13.838Z,24.9
2022-10-07T05:55:10.479Z,21.1
2022-10-07T06:00:04.564Z,17.3
2022-10-07T06:04:59.022Z,15.4
2022-10-07T06:09:59.183Z,20.4
2022-10-07T06:15:02.777Z,25.3
2022-10-07T06:20:03.839Z,28.1
2022-10-07T06:25:04.009Z,30.1
2022-10-07T06:30:03.383Z,31.7
2022-10-07T06:35:02.566Z,33
2022-10-07T06:40:01.558Z,33.5
2022-10-07T06:45:00.221Z,33.8
2022-10-07T06:49:58.973Z,34.8
2022-10-07T06:54:57.257Z,35.1
2022-10-07T06:59:56.004Z,36.1
2022-10-07T07:04:57.538Z,36.5
2022-10-07T07:09:53.109Z,37.3
2022-10-07T07:14:51.686Z,37.6
2022-10-07T07:19:49.692Z,37.7
2022-10-07T07:24:48.103Z,38.3
2022-10-07T07:29:46.626Z,38.7
2022-10-07T07:34:44.998Z,39
2022-10-07T07:39:43.294Z,39
2022-10-07T07:44:41.391Z,39.5
2022-10-07T07:49:39.821Z,39.5
2022-10-07T07:54:38.023Z,40.1
2022-10-07T07:59:36.168Z,39.9
2022-10-07T08:04:34.545Z,39.7
2022-10-07T08:09:33.472Z,40
2022-10-07T08:14:31.609Z,40.4
2022-10-07T08:19:29.951Z,40.5
2022-10-07T08:24:28.260Z,40.7
2022-10-07T08:29:26.110Z,40.8
2022-10-07T08:34:24.540Z,40.9
2022-10-07T08:39:23.106Z,41.7
2022-10-07T08:44:21.233Z,41.3
2022-10-07T08:49:19.019Z,41
2022-10-07T08:54:17.190Z,41.3
2022-10-07T08:59:15.650Z,41.5
2022-10-07T09:04:13.383Z,41
2022-10-07T09:09:11.468Z,41.4
2022-10-07T09:14:09.607Z,41.5
2022-10-07T09:19:07.695Z,41.6
2022-10-07T09:24:05.991Z,42.5
2022-10-07T09:29:03.760Z,42.5
2022-10-07T09:34:01.880Z,42.2
2022-10-07T09:38:59.683Z,42.1
2022-10-07T09:43:57.850Z,42.2
2022-10-07T09:48:55.985Z,42.5
2022-10-07T09:53:54.130Z,42.7
2022-10-07T09:58:52.081Z,43
2022-10-07T10:03:50.249Z,42.8
2022-10-07T10:08:47.983Z,42.7
2022-10-07T10:13:46.081Z,42.7
2022-10-07T10:18:43.944Z,42.7
2022-10-07T10:23:42.019Z,42.9
2022-10-07T10:28:39.971Z,42.9
2022-10-07T10:33:37.868Z,42.9
2022-10-07T10:38:35.955Z,42.7
2022-10-07T10:43:34.042Z,42.5
2022-10-07T10:48:32.401Z,42.6
2022-10-07T10:53:30.379Z,42.4
2022-10-07T10:58:28.380Z,42.4
2022-10-07T11:03:26.152Z,42.2
2022-10-07T11:08:27.168Z,41.8
2022-10-07T11:13:21.682Z,41.4
2022-10-07T11:18:19.711Z,41.8
2022-10-07T11:23:17.794Z,41.9
2022-10-07T11:28:15.542Z,41.6
2022-10-07T11:33:13.461Z,40.9
2022-10-07T11:38:11.383Z,40.7
2022-10-07T11:43:09.253Z,40.5
2022-10-07T11:48:06.999Z,40.4
2022-10-07T11:53:05.187Z,40.6
2022-10-07T11:58:03.636Z,40.6
2022-10-07T12:03:01.315Z,40.1
2022-10-07T12:07:59.035Z,39.6
2022-10-07T12:12:56.124Z,38.7
2022-10-07T12:17:53.280Z,37.9
2022-10-07T12:22:50.622Z,37.2
2022-10-07T12:27:48.061Z,36.7
2022-10-07T12:32:45.740Z,35.5
2022-10-07T12:37:43.027Z,34.7
2022-10-07T12:42:40.436Z,33.5
2022-10-07T12:47:37.495Z,31.2
2022-10-07T12:52:33.475Z,28.8
2022-10-07T12:57:30.354Z,27.2
2022-10-07T13:02:27.535Z,26.2
2022-10-07T13:07:24.795Z,25.6
2022-10-07T13:12:22.619Z,25.4
2022-10-07T13:17:23.385Z,25
2022-10-07T13:22:20.410Z,24.4
2022-10-07T13:27:18.307Z,24.1
2022-10-07T13:32:16.314Z,24.1
2022-10-07T13:37:13.961Z,23.3
2022-10-07T13:42:11.248Z,22.5
2022-10-07T13:47:08.752Z,22
2022-10-07T13:52:06.424Z,21.5
2022-10-07T13:57:06.775Z,21.2
2022-10-07T14:02:02.208Z,21
2022-10-07T14:06:59.872Z,20.7
2022-10-07T14:11:57.726Z,20.4
2022-10-07T14:16:55.595Z,19.8
2022-10-07T14:21:53.004Z,19.4
2022-10-07T14:26:50.896Z,18.9
2022-10-07T14:31:48.774Z,18.5
2022-10-07T14:36:46.990Z,18.1
2022-10-07T14:41:45.147Z,17.8
2022-10-07T14:46:42.915Z,17.2
2022-10-07T14:51:40.675Z,17.1
2022-10-07T14:56:38.458Z,16.7
2022-10-07T15:01:36.191Z,16.4
2022-10-07T15:06:34.049Z,16.1
2022-10-07T15:11:31.791Z,15.7
2022-10-07T15:16:29.469Z,15.2
2022-10-07T15:21:27.026Z,14.7
2022-10-07T15:26:24.728Z,14.3
2022-10-07T15:31:22.161Z,13.9
2022-10-07T15:36:19.666Z,13.5
2022-10-07T15:41:17.210Z,13
2022-10-07T15:46:15.295Z,12.7
2022-10-07T15:51:12.979Z,12.5
2022-10-07T15:56:10.780Z,12
2022-10-07T16:01:08.485Z,11.8
2022-10-07T16:06:06.393Z,11.6
2022-10-07T16:11:04.336Z,11.4
2022-10-07T16:16:02.441Z,11.3
2022-10-07T16:21:00.204Z,11.1
2022-10-07T16:25:58.139Z,10.9
2022-10-07T16:30:56.152Z,10.8
2022-10-07T16:35:54.144Z,10.6
2022-10-07T16:40:52.124Z,10.6
2022-10-07T16:45:50.170Z,10.4
2022-10-07T16:50:48.159Z,10.3
2022-10-07T16:55:46.179Z,10.2
2022-10-07T17:00:44.231Z,10
2022-10-07T17:05:42.414Z,9.9
2022-10-07T17:10:40.307Z,9.7
2022-10-07T17:15:38.497Z,9.5
2022-10-07T17:20:36.475Z,9.4
2022-10-07T17:25:34.471Z,9.3
2022-10-07T17:30:32.557Z,9.3
2022-10-07T17:35:30.915Z,9.2
2022-10-07T17:40:28.931Z,9.1
2022-10-07T17:45:27.127Z,9
2022-10-07T17:50:25.237Z,9
2022-10-07T17:55:23.372Z,9
2022-10-07T18:00:21.425Z,9.1
2022-10-07T18:05:19.633Z,9.1
2022-10-07T18:10:17.692Z,9
2022-10-07T18:15:15.839Z,8.9
2022-10-07T18:20:15.243Z,8.9
2022-10-07T18:25:12.138Z,8.9
2022-10-07T18:30:10.308Z,8.9
2022-10-07T18:35:08.532Z,8.9
2022-10-07T18:40:06.645Z,8.8
2022-10-07T18:45:04.781Z,8.8
2022-10-07T18:50:02.953Z,8.7
2022-10-07T18:55:01.191Z,8.8
2022-10-07T18:59:59.294Z,8.7
2022-10-07T19:04:57.439Z,8.8
2022-10-07T19:09:55.670Z,8.7
2022-10-07T19:14:53.882Z,8.8
2022-10-07T19:19:52.176Z,8.7
2022-10-07T19:24:50.261Z,8.6
2022-10-07T19:29:48.350Z,8.6
2022-10-07T19:34:46.715Z,8.6
2022-10-07T19:39:44.816Z,8.4
2022-10-07T19:44:43.127Z,8.5
2022-10-07T19:49:41.492Z,8.5
2022-10-07T19:54:39.892Z,8.6
2022-10-07T19:59:38.133Z,8.6
2022-10-07T20:04:36.281Z,8.4
2022-10-07T20:09:34.466Z,8.3
2022-10-07T20:14:32.521Z,8.2
2022-10-07T20:19:30.660Z,8.1
2022-10-07T20:24:28.841Z,8
2022-10-07T20:29:26.871Z,8
2022-10-07T20:34:25.234Z,7.9
2022-10-07T20:39:23.069Z,7.9
2022-10-07T20:44:21.143Z,7.8
2022-10-07T20:49:19.358Z,7.7
2022-10-07T20:54:17.750Z,7.7
2022-10-07T20:59:15.947Z,7.6
2022-10-07T21:04:14.106Z,7.6
2022-10-07T21:09:12.119Z,7.5
2022-10-07T21:14:10.140Z,7.4
2022-10-07T21:19:08.269Z,7.4
2022-10-07T21:24:06.424Z,7.4
2022-10-07T21:29:04.623Z,7.5
2022-10-07T21:34:02.899Z,7.5
2022-10-07T21:39:01.087Z,7.5
2022-10-07T21:43:59.245Z,7.4
2022-10-07T21:48:57.325Z,7.5
2022-10-07T21:53:55.545Z,7.5
2022-10-07T21:58:53.612Z,7.4
2022-10-07T22:03:51.827Z,7.4
2022-10-07T22:08:53.079Z,7.2
2022-10-07T22:13:48.244Z,7.2
2022-10-07T22:18:46.286Z,7.1
2022-10-07T22:23:44.265Z,7.1
2022-10-07T22:28:42.521Z,7.1
2022-10-07T22:33:40.541Z,7
2022-10-07T22:38:38.616Z,6.8
2022-10-07T22:43:36.571Z,6.7
2022-10-07T22:48:34.632Z,6.6
2022-10-07T22:53:32.615Z,6.4
2022-10-07T22:58:30.604Z,6.3
2022-10-07T23:03:28.716Z,6.2
2022-10-07T23:08:26.531Z,6.1
2022-10-07T23:13:24.506Z,6
2022-10-07T23:18:22.550Z,5.9
2022-10-07T23:23:20.830Z,5.9
2022-10-07T23:28:19.042Z,5.7
2022-10-07T23:33:17.052Z,5.6
2022-10-07T23:38:15.078Z,5.6
2022-10-07T23:43:13.109Z,5.6
2022-10-07T23:48:11.378Z,5.6
2022-10-07T23:53:09.718Z,5.6
2022-10-07T23:58:07.808Z,5.6
